N709LP CYHZ-KPWM
Flight info
| Callsign | N709LP |
|---|---|
| Flight time | N/A |
| Altitude | 40000 |
| Route | SENVI Q846 VIGMA DCT AJJAY |
| Aircraft | CL60/M-SBDE1E2E3FGHIJ1J4J5J7M3RWXYZ/LB1V1D1 |
Departure
| Time | 2026-05-05 23:25 |
|---|---|
| Airport | Halifax / Stanfield International Airport (CYHZ) |
Arrival
| Time | N/A |
|---|---|
| Airport | Portland International Jetport (KPWM) |
| Time | Latitude | Longitude | Altitude | Speed | Heading |
|---|---|---|---|---|---|
| 2026-05-05 22:52 | 44.87690 | -63.52158 | 460 ft | 0 kts | 28° |
| 2026-05-05 23:14 | 44.87699 | -63.52145 | 461 ft | 6 kts | 72° |
| 2026-05-05 23:14 | 44.87679 | -63.52110 | 462 ft | 2 kts | 150° |
| 2026-05-05 23:14 | 44.87638 | -63.52070 | 462 ft | 7 kts | 130° |
| 2026-05-05 23:15 | 44.87621 | -63.52014 | 463 ft | 7 kts | 69° |
| 2026-05-05 23:15 | 44.87682 | -63.51952 | 461 ft | 14 kts | 35° |
| 2026-05-05 23:15 | 44.87776 | -63.51862 | 460 ft | 15 kts | 34° |
| 2026-05-05 23:15 | 44.87829 | -63.51808 | 458 ft | 11 kts | 35° |
| 2026-05-05 23:16 | 44.87909 | -63.51727 | 456 ft | 17 kts | 36° |
| 2026-05-05 23:16 | 44.88028 | -63.51611 | 451 ft | 23 kts | 34° |
| 2026-05-05 23:16 | 44.88160 | -63.51481 | 449 ft | 17 kts | 35° |
| 2026-05-05 23:16 | 44.88271 | -63.51372 | 448 ft | 21 kts | 35° |
| 2026-05-05 23:17 | 44.88388 | -63.51249 | 450 ft | 12 kts | 38° |
| 2026-05-05 23:17 | 44.88462 | -63.51205 | 449 ft | 13 kts | 348° |
| 2026-05-05 23:17 | 44.88531 | -63.51223 | 448 ft | 10 kts | 350° |
| 2026-05-05 23:17 | 44.88617 | -63.51244 | 448 ft | 15 kts | 350° |
| 2026-05-05 23:18 | 44.88693 | -63.51209 | 448 ft | 14 kts | 84° |
| 2026-05-05 23:18 | 44.88705 | -63.51064 | 448 ft | 15 kts | 78° |
| 2026-05-05 23:18 | 44.88729 | -63.50927 | 450 ft | 12 kts | 56° |
| 2026-05-05 23:18 | 44.88801 | -63.50850 | 449 ft | 0 kts | 35° |
| 2026-05-05 23:19 | 44.88802 | -63.50849 | 449 ft | 1 kts | 36° |
| 2026-05-05 23:19 | 44.88844 | -63.50806 | 448 ft | 12 kts | 35° |
| 2026-05-05 23:19 | 44.88932 | -63.50719 | 444 ft | 18 kts | 35° |
| 2026-05-05 23:19 | 44.89008 | -63.50617 | 442 ft | 9 kts | 79° |
| 2026-05-05 23:20 | 44.89005 | -63.50586 | 441 ft | 0 kts | 116° |
| 2026-05-05 23:23 | 44.88990 | -63.50556 | 442 ft | 7 kts | 126° |
| 2026-05-05 23:24 | 44.88953 | -63.50480 | 442 ft | 10 kts | 126° |
| 2026-05-05 23:24 | 44.88899 | -63.50424 | 444 ft | 9 kts | 181° |
| 2026-05-05 23:24 | 44.88885 | -63.50433 | 444 ft | 0 kts | 215° |
| 2026-05-05 23:24 | 44.88878 | -63.50440 | 444 ft | 4 kts | 214° |
| 2026-05-05 23:25 | 44.88601 | -63.50717 | 456 ft | 96 kts | 214° |
| 2026-05-05 23:25 | 44.87869 | -63.51451 | 678 ft | 151 kts | 216° |
| 2026-05-05 23:25 | 44.87139 | -63.52320 | 2052 ft | 135 kts | 229° |
| 2026-05-05 23:25 | 44.86791 | -63.53289 | 3384 ft | 117 kts | 248° |
| 2026-05-05 23:26 | 44.86498 | -63.54298 | 4222 ft | 124 kts | 239° |
| 2026-05-05 23:26 | 44.85998 | -63.55481 | 4721 ft | 155 kts | 237° |
| 2026-05-05 23:26 | 44.85400 | -63.56805 | 5597 ft | 171 kts | 240° |
| 2026-05-05 23:26 | 44.84978 | -63.58411 | 6581 ft | 184 kts | 253° |
| 2026-05-05 23:27 | 44.84655 | -63.60154 | 7649 ft | 190 kts | 254° |
| 2026-05-05 23:27 | 44.84320 | -63.61937 | 8730 ft | 195 kts | 254° |
| 2026-05-05 23:27 | 44.83974 | -63.63755 | 9789 ft | 200 kts | 254° |
| 2026-05-05 23:27 | 44.83592 | -63.65751 | 10236 ft | 234 kts | 254° |
| 2026-05-05 23:28 | 44.83131 | -63.68151 | 10498 ft | 273 kts | 254° |
| 2026-05-05 23:28 | 44.82620 | -63.70799 | 11350 ft | 288 kts | 254° |
| 2026-05-05 23:28 | 44.82086 | -63.73554 | 12320 ft | 296 kts | 254° |
| 2026-05-05 23:28 | 44.81547 | -63.76326 | 13322 ft | 301 kts | 253° |
| 2026-05-05 23:29 | 44.80993 | -63.79159 | 14268 ft | 306 kts | 253° |
| 2026-05-05 23:29 | 44.80422 | -63.82065 | 15220 ft | 310 kts | 253° |
| 2026-05-05 23:29 | 44.79848 | -63.84971 | 16073 ft | 315 kts | 253° |
| 2026-05-05 23:29 | 44.79255 | -63.87965 | 16932 ft | 320 kts | 253° |
| 2026-05-05 23:30 | 44.78655 | -63.90982 | 17743 ft | 325 kts | 253° |
| 2026-05-05 23:30 | 44.78050 | -63.94020 | 18553 ft | 328 kts | 253° |
| 2026-05-05 23:30 | 44.77427 | -63.97131 | 19301 ft | 333 kts | 253° |
| 2026-05-05 23:30 | 44.76801 | -64.00253 | 20034 ft | 337 kts | 253° |
| 2026-05-05 23:31 | 44.76157 | -64.03459 | 20754 ft | 341 kts | 253° |
| 2026-05-05 23:31 | 44.75504 | -64.06697 | 21450 ft | 346 kts | 253° |
| 2026-05-05 23:31 | 44.74852 | -64.09924 | 22137 ft | 349 kts | 253° |
| 2026-05-05 23:31 | 44.74188 | -64.13206 | 22787 ft | 353 kts | 253° |
| 2026-05-05 23:32 | 44.73525 | -64.16527 | 23373 ft | 358 kts | 255° |
| 2026-05-05 23:32 | 44.72928 | -64.19957 | 24025 ft | 362 kts | 256° |
| 2026-05-05 23:32 | 44.72406 | -64.23421 | 24688 ft | 365 kts | 258° |
| 2026-05-05 23:32 | 44.71904 | -64.26916 | 25311 ft | 368 kts | 258° |
| 2026-05-05 23:33 | 44.71397 | -64.30426 | 25880 ft | 371 kts | 258° |
| 2026-05-05 23:33 | 44.70879 | -64.33983 | 26436 ft | 375 kts | 258° |
| 2026-05-05 23:33 | 44.70355 | -64.37569 | 26941 ft | 379 kts | 258° |
| 2026-05-05 23:33 | 44.69817 | -64.41231 | 27456 ft | 382 kts | 258° |
| 2026-05-05 23:34 | 44.69273 | -64.44914 | 27934 ft | 386 kts | 258° |
| 2026-05-05 23:34 | 44.68729 | -64.48582 | 28401 ft | 389 kts | 258° |
| 2026-05-05 23:34 | 44.68179 | -64.52284 | 28843 ft | 392 kts | 258° |
| 2026-05-05 23:34 | 44.67608 | -64.56104 | 29274 ft | 395 kts | 258° |
| 2026-05-05 23:35 | 44.67047 | -64.59854 | 29697 ft | 398 kts | 258° |
| 2026-05-05 23:35 | 44.66467 | -64.63708 | 30122 ft | 400 kts | 258° |
| 2026-05-05 23:35 | 44.65883 | -64.67584 | 30499 ft | 403 kts | 257° |
| 2026-05-05 23:35 | 44.65293 | -64.71481 | 30878 ft | 406 kts | 258° |
| 2026-05-05 23:36 | 44.64703 | -64.75375 | 31271 ft | 408 kts | 258° |
| 2026-05-05 23:36 | 44.64103 | -64.79315 | 31585 ft | 411 kts | 258° |
| 2026-05-05 23:36 | 44.63497 | -64.83287 | 31912 ft | 413 kts | 258° |
| 2026-05-05 23:36 | 44.62886 | -64.87284 | 32235 ft | 415 kts | 258° |
| 2026-05-05 23:37 | 44.62277 | -64.91249 | 32526 ft | 417 kts | 258° |
| 2026-05-05 23:37 | 44.61659 | -64.95272 | 32787 ft | 419 kts | 258° |
| 2026-05-05 23:37 | 44.61035 | -64.99315 | 33070 ft | 421 kts | 258° |
| 2026-05-05 23:37 | 44.60416 | -65.03319 | 33305 ft | 423 kts | 258° |
| 2026-05-05 23:38 | 44.59786 | -65.07384 | 33548 ft | 424 kts | 258° |
| 2026-05-05 23:38 | 44.59156 | -65.11434 | 33826 ft | 424 kts | 258° |
| 2026-05-05 23:38 | 44.58525 | -65.15477 | 34158 ft | 423 kts | 258° |
| 2026-05-05 23:38 | 44.57886 | -65.19563 | 34547 ft | 421 kts | 258° |
| 2026-05-05 23:39 | 44.57264 | -65.23527 | 34957 ft | 418 kts | 258° |
| 2026-05-05 23:39 | 44.56637 | -65.27516 | 35302 ft | 416 kts | 258° |
| 2026-05-05 23:39 | 44.56009 | -65.31501 | 35674 ft | 414 kts | 258° |
| 2026-05-05 23:39 | 44.55386 | -65.35436 | 36007 ft | 412 kts | 258° |
| 2026-05-05 23:40 | 44.54770 | -65.39327 | 36304 ft | 411 kts | 258° |
| 2026-05-05 23:40 | 44.54150 | -65.43226 | 36593 ft | 410 kts | 258° |
| 2026-05-05 23:40 | 44.53530 | -65.47121 | 36902 ft | 408 kts | 258° |
| 2026-05-05 23:40 | 44.52915 | -65.50974 | 37170 ft | 406 kts | 258° |
| 2026-05-05 23:41 | 44.52300 | -65.54815 | 37419 ft | 405 kts | 258° |
| 2026-05-05 23:41 | 44.51682 | -65.58672 | 37645 ft | 404 kts | 258° |
| 2026-05-05 23:41 | 44.51061 | -65.62533 | 37850 ft | 403 kts | 258° |